createdAt,value
2022-11-12T00:00:16.605Z,2
2022-11-12T00:05:19.831Z,3
2022-11-12T00:10:19.560Z,2
2022-11-12T00:15:19.642Z,2
2022-11-12T00:20:19.740Z,4
2022-11-12T00:25:19.771Z,2
2022-11-12T00:30:19.670Z,2
2022-11-12T00:35:19.757Z,2
2022-11-12T00:40:19.782Z,3
2022-11-12T00:45:19.785Z,4
2022-11-12T00:50:16.716Z,3
2022-11-12T00:55:16.604Z,4
2022-11-12T01:00:19.762Z,3
2022-11-12T01:05:20.089Z,6
2022-11-12T01:10:19.747Z,5
2022-11-12T01:15:19.694Z,4
2022-11-12T01:20:20.168Z,3
2022-11-12T01:25:19.817Z,3
2022-11-12T01:30:19.709Z,3
2022-11-12T01:35:19.753Z,4
2022-11-12T01:40:19.838Z,4
2022-11-12T01:45:16.752Z,5
2022-11-12T01:50:19.797Z,7
2022-11-12T01:55:19.949Z,5
2022-11-12T02:00:19.867Z,5
2022-11-12T02:05:19.933Z,5
2022-11-12T02:10:19.841Z,5
2022-11-12T02:15:19.906Z,5
2022-11-12T02:20:19.819Z,4
2022-11-12T02:25:19.872Z,3
2022-11-12T02:30:19.903Z,4
2022-11-12T02:35:16.952Z,3
2022-11-12T02:40:16.801Z,4
2022-11-12T02:45:20.070Z,6
2022-11-12T02:50:19.965Z,4
2022-11-12T02:55:19.985Z,5
2022-11-12T03:00:20.045Z,5
2022-11-12T03:05:19.866Z,5
2022-11-12T03:10:20.139Z,4
2022-11-12T03:15:19.983Z,4
2022-11-12T03:20:19.995Z,3
2022-11-12T03:25:20.031Z,4
2022-11-12T03:30:16.900Z,4
2022-11-12T03:35:17.025Z,3
2022-11-12T03:40:20.030Z,3
2022-11-12T03:45:19.991Z,4
2022-11-12T03:50:20.067Z,4
2022-11-12T03:55:19.978Z,4
2022-11-12T04:00:20.066Z,4
2022-11-12T04:05:20.116Z,3
2022-11-12T04:10:20.000Z,4
2022-11-12T04:15:20.354Z,5
2022-11-12T04:20:20.033Z,5
2022-11-12T04:25:16.962Z,5
2022-11-12T04:30:17.080Z,6
2022-11-12T04:35:20.042Z,6
2022-11-12T04:40:20.122Z,8
2022-11-12T04:45:20.095Z,7
2022-11-12T04:50:20.089Z,11
2022-11-12T04:55:20.133Z,11
2022-11-12T05:00:19.377Z,10
2022-11-12T05:05:19.460Z,6
2022-11-12T05:10:19.317Z,7
2022-11-12T05:15:19.377Z,8
2022-11-12T05:20:19.402Z,8
2022-11-12T05:25:19.267Z,8
2022-11-12T05:30:16.326Z,6
2022-11-12T05:35:16.295Z,5
2022-11-12T05:40:19.421Z,10
2022-11-12T05:45:19.400Z,8
2022-11-12T05:50:19.534Z,8
2022-11-12T05:55:19.435Z,6
2022-11-12T06:00:19.451Z,7
2022-11-12T06:05:19.398Z,7
2022-11-12T06:10:20.777Z,7
2022-11-12T06:15:19.530Z,7
2022-11-12T06:20:19.465Z,8
2022-11-12T06:25:16.452Z,7
2022-11-12T06:30:24.476Z,10
2022-11-12T06:35:19.483Z,8
2022-11-12T06:40:19.521Z,8
2022-11-12T06:45:19.524Z,9
2022-11-12T06:50:19.447Z,7
2022-11-12T06:55:19.510Z,9
2022-11-12T07:00:19.505Z,5
2022-11-12T07:05:19.475Z,10
2022-11-12T07:10:19.476Z,5
2022-11-12T07:15:16.375Z,6
2022-11-12T07:20:16.429Z,7
2022-11-12T07:25:19.570Z,6
2022-11-12T07:30:19.478Z,8
2022-11-12T07:35:19.525Z,6
2022-11-12T07:40:19.560Z,7
2022-11-12T07:45:19.860Z,4
2022-11-12T07:50:19.595Z,7
2022-11-12T07:55:19.552Z,7
2022-11-12T08:00:19.648Z,6
2022-11-12T08:05:21.553Z,7
2022-11-12T08:10:16.417Z,7
2022-11-12T08:15:16.347Z,10
2022-11-12T08:20:19.493Z,6
2022-11-12T08:25:19.617Z,5
2022-11-12T08:30:19.484Z,6
2022-11-12T08:35:19.602Z,6
2022-11-12T08:40:19.597Z,6
2022-11-12T08:45:19.689Z,6
2022-11-12T08:50:19.683Z,6
2022-11-12T08:55:19.672Z,5
2022-11-12T09:00:16.540Z,6
2022-11-12T09:05:16.501Z,5
2022-11-12T09:10:19.705Z,4
2022-11-12T09:15:55.003Z,5
2022-11-12T09:20:19.706Z,4
2022-11-12T09:25:19.880Z,5
2022-11-12T09:30:19.726Z,5
2022-11-12T09:35:19.645Z,5
2022-11-12T09:40:19.638Z,4
2022-11-12T09:45:19.699Z,4
2022-11-12T09:50:19.740Z,5
2022-11-12T09:55:16.685Z,4
2022-11-12T10:00:16.640Z,5
2022-11-12T10:05:19.765Z,5
2022-11-12T10:10:19.843Z,5
2022-11-12T10:15:19.744Z,5
2022-11-12T10:20:19.918Z,5
2022-11-12T10:25:19.746Z,6
2022-11-12T10:30:19.702Z,5
2022-11-12T10:35:19.752Z,4
2022-11-12T10:40:19.751Z,4
2022-11-12T10:45:19.737Z,6
2022-11-12T10:50:16.806Z,5
2022-11-12T10:55:16.902Z,6
2022-11-12T11:00:19.872Z,4
2022-11-12T11:05:19.875Z,5
2022-11-12T11:10:19.841Z,6
2022-11-12T11:15:19.800Z,6
2022-11-12T11:20:19.764Z,4
2022-11-12T11:25:19.866Z,6
2022-11-12T11:30:19.824Z,5
2022-11-12T11:35:19.830Z,6
2022-11-12T11:40:16.838Z,5
2022-11-12T11:45:16.744Z,7
2022-11-12T11:50:19.963Z,6
2022-11-12T11:55:19.854Z,5
2022-11-12T12:00:19.969Z,6
2022-11-12T12:05:20.079Z,6
2022-11-12T12:10:20.005Z,4
2022-11-12T12:15:19.978Z,5
2022-11-12T12:20:19.882Z,7
2022-11-12T12:25:19.906Z,6
2022-11-12T12:30:19.865Z,8
2022-11-12T12:35:16.911Z,9
2022-11-12T12:40:16.743Z,11
2022-11-12T12:45:19.915Z,7
2022-11-12T12:50:20.052Z,6
2022-11-12T12:55:19.892Z,9
2022-11-12T13:00:19.907Z,11
2022-11-12T13:05:19.957Z,13
2022-11-12T13:10:19.911Z,9
2022-11-12T13:15:19.900Z,9
2022-11-12T13:20:19.988Z,8
2022-11-12T13:25:19.968Z,9
2022-11-12T13:30:16.970Z,9
2022-11-12T13:35:19.967Z,10
2022-11-12T13:40:20.105Z,9
2022-11-12T13:45:20.038Z,11
2022-11-12T13:50:20.048Z,7
2022-11-12T13:55:19.980Z,6
2022-11-12T14:00:20.074Z,4
2022-11-12T14:05:20.015Z,4
2022-11-12T14:10:20.075Z,5
2022-11-12T14:15:20.134Z,3
2022-11-12T14:20:16.867Z,3
2022-11-12T14:25:17.086Z,4
2022-11-12T14:30:20.034Z,4
2022-11-12T14:35:20.105Z,3
2022-11-12T14:40:20.059Z,4
2022-11-12T14:45:20.084Z,3
2022-11-12T14:50:20.161Z,4
2022-11-12T14:55:20.110Z,4
2022-11-12T15:00:20.127Z,4
2022-11-12T15:05:20.126Z,5
2022-11-12T15:10:20.163Z,4
2022-11-12T15:15:17.005Z,7
2022-11-12T15:20:20.164Z,6
2022-11-12T15:25:20.445Z,5
2022-11-12T15:30:20.043Z,5
2022-11-12T15:35:20.179Z,15
2022-11-12T15:40:20.224Z,15
2022-11-12T15:45:20.208Z,12
2022-11-12T15:50:20.172Z,11
2022-11-12T15:55:20.160Z,16
2022-11-12T16:00:20.255Z,16
2022-11-12T16:05:17.118Z,13
2022-11-12T16:10:17.134Z,18
2022-11-12T16:15:20.260Z,18
2022-11-12T16:20:20.131Z,13
2022-11-12T16:25:20.228Z,17
2022-11-12T16:30:20.081Z,19
2022-11-12T16:35:20.258Z,18
2022-11-12T16:40:20.243Z,14
2022-11-12T16:45:20.375Z,14
2022-11-12T16:50:20.216Z,10
2022-11-12T16:55:20.286Z,9
2022-11-12T17:00:17.231Z,10
2022-11-12T17:05:17.157Z,11
2022-11-12T17:10:20.461Z,10
2022-11-12T17:15:20.355Z,11
2022-11-12T17:20:20.247Z,10
2022-11-12T17:25:20.306Z,10
2022-11-12T17:30:20.249Z,10
2022-11-12T17:35:20.275Z,9
2022-11-12T17:40:20.341Z,17
2022-11-12T17:45:20.377Z,14
2022-11-12T17:50:20.346Z,11
2022-11-12T17:55:17.271Z,14
2022-11-12T18:00:20.283Z,16
2022-11-12T18:05:20.413Z,12
2022-11-12T18:10:20.567Z,10
2022-11-12T18:15:20.349Z,14
2022-11-12T18:20:20.359Z,5
2022-11-12T18:25:20.372Z,10
2022-11-12T18:30:20.270Z,7
2022-11-12T18:35:20.377Z,9
2022-11-12T18:40:20.411Z,5
2022-11-12T18:45:17.343Z,11
2022-11-12T18:50:17.229Z,15
2022-11-12T18:55:20.541Z,10
2022-11-12T19:00:20.400Z,11
2022-11-12T19:05:20.438Z,8
2022-11-12T19:10:20.447Z,8
2022-11-12T19:15:24.206Z,5
2022-11-12T19:20:20.464Z,7
2022-11-12T19:25:20.481Z,6
2022-11-12T19:30:20.456Z,9
2022-11-12T19:35:20.484Z,8
2022-11-12T19:40:17.396Z,14
2022-11-12T19:45:17.655Z,11
2022-11-12T19:50:24.542Z,15
2022-11-12T19:55:20.459Z,8
2022-11-12T20:00:20.525Z,9
2022-11-12T20:05:20.513Z,6
2022-11-12T20:10:20.473Z,11
2022-11-12T20:15:20.632Z,11
2022-11-12T20:20:20.441Z,9
2022-11-12T20:25:20.505Z,7
2022-11-12T20:30:17.706Z,11
2022-11-12T20:35:22.021Z,2
2022-11-12T20:40:20.486Z,3
2022-11-12T20:45:20.629Z,8
2022-11-12T20:50:20.551Z,4
2022-11-12T20:55:20.565Z,3
2022-11-12T21:00:24.150Z,3
2022-11-12T21:05:20.649Z,5
2022-11-12T21:10:20.568Z,3
2022-11-12T21:15:20.547Z,2
2022-11-12T21:20:18.548Z,4
2022-11-12T21:25:18.596Z,3
2022-11-12T21:30:18.519Z,3
2022-11-12T21:35:18.617Z,6
2022-11-12T21:40:18.647Z,2
2022-11-12T21:45:18.646Z,3
2022-11-12T21:50:18.710Z,2
2022-11-12T21:55:18.610Z,1
2022-11-12T22:00:40.927Z,1
2022-11-12T22:05:15.544Z,1
2022-11-12T22:10:18.605Z,1
2022-11-12T22:15:24.015Z,1
2022-11-12T22:20:18.574Z,1
2022-11-12T22:25:18.735Z,1
2022-11-12T22:30:18.530Z,2
2022-11-12T22:35:18.668Z,1
2022-11-12T22:40:18.713Z,2
2022-11-12T22:45:18.668Z,1
2022-11-12T22:50:18.724Z,1
2022-11-12T22:55:15.718Z,4
2022-11-12T23:00:15.589Z,1
2022-11-12T23:05:18.729Z,2
2022-11-12T23:10:18.731Z,1
2022-11-12T23:15:18.705Z,1
2022-11-12T23:20:18.693Z,1
2022-11-12T23:25:18.749Z,2
2022-11-12T23:30:18.634Z,2
2022-11-12T23:35:18.755Z,2
2022-11-12T23:40:18.766Z,2
2022-11-12T23:45:18.802Z,1
2022-11-12T23:50:15.754Z,1
2022-11-12T23:55:15.741Z,1
